sensor_id;sensor_type;location;lat;lon;timestamp;P1;durP1;ratioP1;P2;durP2;ratioP2
70780;SDS011;59514;48.810;2.134;2023-04-21T00:01:44;5.07;;;4.50;;
70780;SDS011;59514;48.810;2.134;2023-04-21T00:04:10;5.15;;;4.65;;
70780;SDS011;59514;48.810;2.134;2023-04-21T00:06:38;5.45;;;4.55;;
70780;SDS011;59514;48.810;2.134;2023-04-21T00:09:05;5.10;;;4.13;;
70780;SDS011;59514;48.810;2.134;2023-04-21T00:11:31;5.53;;;5.00;;
70780;SDS011;59514;48.810;2.134;2023-04-21T00:13:57;5.32;;;4.82;;
70780;SDS011;59514;48.810;2.134;2023-04-21T00:16:22;6.38;;;5.78;;
70780;SDS011;59514;48.810;2.134;2023-04-21T00:18:48;7.00;;;6.30;;
70780;SDS011;59514;48.810;2.134;2023-04-21T00:21:13;7.97;;;6.28;;
70780;SDS011;59514;48.810;2.134;2023-04-21T00:23:38;6.53;;;5.93;;
70780;SDS011;59514;48.810;2.134;2023-04-21T00:26:04;6.38;;;5.78;;
70780;SDS011;59514;48.810;2.134;2023-04-21T00:28:29;7.32;;;6.63;;
70780;SDS011;59514;48.810;2.134;2023-04-21T00:30:54;7.55;;;6.13;;
70780;SDS011;59514;48.810;2.134;2023-04-21T00:33:20;7.10;;;6.40;;
70780;SDS011;59514;48.810;2.134;2023-04-21T00:35:45;7.68;;;5.60;;
70780;SDS011;59514;48.810;2.134;2023-04-21T00:38:10;7.07;;;6.03;;
70780;SDS011;59514;48.810;2.134;2023-04-21T00:40:36;6.22;;;5.63;;
70780;SDS011;59514;48.810;2.134;2023-04-21T00:43:04;6.38;;;5.75;;
70780;SDS011;59514;48.810;2.134;2023-04-21T00:45:30;7.30;;;6.60;;
70780;SDS011;59514;48.810;2.134;2023-04-21T00:47:55;6.13;;;5.53;;
70780;SDS011;59514;48.810;2.134;2023-04-21T00:50:21;8.23;;;6.70;;
70780;SDS011;59514;48.810;2.134;2023-04-21T00:52:46;7.65;;;6.82;;
70780;SDS011;59514;48.810;2.134;2023-04-21T00:55:13;8.93;;;7.63;;
70780;SDS011;59514;48.810;2.134;2023-04-21T00:57:38;9.15;;;8.20;;
70780;SDS011;59514;48.810;2.134;2023-04-21T01:00:04;8.57;;;7.65;;
70780;SDS011;59514;48.810;2.134;2023-04-21T01:02:30;8.80;;;7.05;;
70780;SDS011;59514;48.810;2.134;2023-04-21T01:04:56;8.65;;;7.68;;
70780;SDS011;59514;48.810;2.134;2023-04-21T01:07:23;7.57;;;6.78;;
70780;SDS011;59514;48.810;2.134;2023-04-21T01:09:49;8.50;;;7.60;;
70780;SDS011;59514;48.810;2.134;2023-04-21T01:12:14;8.27;;;7.47;;
70780;SDS011;59514;48.810;2.134;2023-04-21T01:14:40;7.35;;;6.60;;
70780;SDS011;59514;48.810;2.134;2023-04-21T01:17:05;9.25;;;8.23;;
70780;SDS011;59514;48.810;2.134;2023-04-21T01:19:33;8.63;;;7.72;;
70780;SDS011;59514;48.810;2.134;2023-04-21T01:22:03;8.35;;;7.45;;
70780;SDS011;59514;48.810;2.134;2023-04-21T01:24:48;9.57;;;8.20;;
70780;SDS011;59514;48.810;2.134;2023-04-21T01:27:14;8.80;;;7.88;;
70780;SDS011;59514;48.810;2.134;2023-04-21T01:29:44;8.48;;;7.57;;
70780;SDS011;59514;48.810;2.134;2023-04-21T01:32:12;7.40;;;6.53;;
70780;SDS011;59514;48.810;2.134;2023-04-21T01:34:40;8.45;;;7.55;;
70780;SDS011;59514;48.810;2.134;2023-04-21T01:37:10;8.52;;;7.25;;
70780;SDS011;59514;48.810;2.134;2023-04-21T01:39:37;7.63;;;6.75;;
70780;SDS011;59514;48.810;2.134;2023-04-21T01:42:03;7.50;;;6.78;;
70780;SDS011;59514;48.810;2.134;2023-04-21T01:44:28;7.93;;;7.13;;
70780;SDS011;59514;48.810;2.134;2023-04-21T01:46:54;7.78;;;6.78;;
70780;SDS011;59514;48.810;2.134;2023-04-21T01:49:19;8.40;;;7.35;;
70780;SDS011;59514;48.810;2.134;2023-04-21T01:51:45;8.02;;;7.22;;
70780;SDS011;59514;48.810;2.134;2023-04-21T01:54:10;8.63;;;7.63;;
70780;SDS011;59514;48.810;2.134;2023-04-21T01:56:35;8.63;;;7.00;;
70780;SDS011;59514;48.810;2.134;2023-04-21T01:59:01;9.35;;;8.25;;
70780;SDS011;59514;48.810;2.134;2023-04-21T02:01:26;8.38;;;7.45;;
70780;SDS011;59514;48.810;2.134;2023-04-21T02:03:51;8.45;;;7.65;;
70780;SDS011;59514;48.810;2.134;2023-04-21T02:06:17;9.85;;;8.40;;
70780;SDS011;59514;48.810;2.134;2023-04-21T02:08:42;9.35;;;8.35;;
70780;SDS011;59514;48.810;2.134;2023-04-21T02:11:07;9.63;;;8.63;;
70780;SDS011;59514;48.810;2.134;2023-04-21T02:13:32;10.15;;;8.93;;
70780;SDS011;59514;48.810;2.134;2023-04-21T02:15:58;10.43;;;8.75;;
70780;SDS011;59514;48.810;2.134;2023-04-21T02:18:23;9.90;;;8.77;;
70780;SDS011;59514;48.810;2.134;2023-04-21T02:20:49;9.25;;;8.02;;
70780;SDS011;59514;48.810;2.134;2023-04-21T02:23:15;8.40;;;7.50;;
70780;SDS011;59514;48.810;2.134;2023-04-21T02:25:40;8.13;;;7.32;;
70780;SDS011;59514;48.810;2.134;2023-04-21T02:28:05;8.35;;;7.25;;
70780;SDS011;59514;48.810;2.134;2023-04-21T02:30:31;9.73;;;8.73;;
70780;SDS011;59514;48.810;2.134;2023-04-21T02:32:58;9.60;;;8.13;;
70780;SDS011;59514;48.810;2.134;2023-04-21T02:35:23;9.23;;;8.30;;
70780;SDS011;59514;48.810;2.134;2023-04-21T02:37:48;9.15;;;7.70;;
70780;SDS011;59514;48.810;2.134;2023-04-21T02:40:13;8.98;;;8.07;;
70780;SDS011;59514;48.810;2.134;2023-04-21T02:42:39;8.63;;;7.68;;
70780;SDS011;59514;48.810;2.134;2023-04-21T02:45:05;8.13;;;7.28;;
70780;SDS011;59514;48.810;2.134;2023-04-21T02:47:31;7.43;;;6.72;;
70780;SDS011;59514;48.810;2.134;2023-04-21T02:49:56;7.72;;;7.00;;
70780;SDS011;59514;48.810;2.134;2023-04-21T02:52:21;8.25;;;7.32;;
70780;SDS011;59514;48.810;2.134;2023-04-21T02:54:46;11.27;;;8.02;;
70780;SDS011;59514;48.810;2.134;2023-04-21T02:57:12;10.57;;;9.45;;
70780;SDS011;59514;48.810;2.134;2023-04-21T02:59:37;9.57;;;8.30;;
70780;SDS011;59514;48.810;2.134;2023-04-21T03:02:02;8.88;;;7.95;;
70780;SDS011;59514;48.810;2.134;2023-04-21T03:04:28;10.60;;;9.50;;
70780;SDS011;59514;48.810;2.134;2023-04-21T03:06:53;12.00;;;9.10;;
70780;SDS011;59514;48.810;2.134;2023-04-21T03:09:19;9.10;;;7.88;;
70780;SDS011;59514;48.810;2.134;2023-04-21T03:11:44;9.55;;;8.50;;
70780;SDS011;59514;48.810;2.134;2023-04-21T03:14:10;9.65;;;8.13;;
70780;SDS011;59514;48.810;2.134;2023-04-21T03:16:35;9.98;;;8.25;;
70780;SDS011;59514;48.810;2.134;2023-04-21T03:19:00;10.65;;;9.55;;
70780;SDS011;59514;48.810;2.134;2023-04-21T03:21:26;11.07;;;9.15;;
70780;SDS011;59514;48.810;2.134;2023-04-21T03:23:51;10.48;;;9.38;;
70780;SDS011;59514;48.810;2.134;2023-04-21T03:26:16;8.63;;;7.78;;
70780;SDS011;59514;48.810;2.134;2023-04-21T03:28:42;10.95;;;9.02;;
70780;SDS011;59514;48.810;2.134;2023-04-21T03:31:07;10.82;;;9.38;;
70780;SDS011;59514;48.810;2.134;2023-04-21T03:33:33;10.23;;;9.15;;
70780;SDS011;59514;48.810;2.134;2023-04-21T03:35:58;9.70;;;8.63;;
70780;SDS011;59514;48.810;2.134;2023-04-21T03:38:23;10.48;;;8.75;;
70780;SDS011;59514;48.810;2.134;2023-04-21T03:40:49;10.18;;;8.52;;
70780;SDS011;59514;48.810;2.134;2023-04-21T03:43:14;12.40;;;10.93;;
70780;SDS011;59514;48.810;2.134;2023-04-21T03:45:40;11.95;;;10.02;;
70780;SDS011;59514;48.810;2.134;2023-04-21T03:48:05;12.90;;;11.00;;
70780;SDS011;59514;48.810;2.134;2023-04-21T03:50:30;11.20;;;9.60;;
70780;SDS011;59514;48.810;2.134;2023-04-21T03:52:55;9.90;;;8.90;;
70780;SDS011;59514;48.810;2.134;2023-04-21T03:55:21;11.20;;;8.80;;
70780;SDS011;59514;48.810;2.134;2023-04-21T03:57:46;10.13;;;9.07;;
70780;SDS011;59514;48.810;2.134;2023-04-21T04:00:12;10.77;;;9.60;;
70780;SDS011;59514;48.810;2.134;2023-04-21T04:02:37;11.90;;;10.48;;
70780;SDS011;59514;48.810;2.134;2023-04-21T04:05:03;10.23;;;9.18;;
70780;SDS011;59514;48.810;2.134;2023-04-21T04:07:30;10.82;;;9.70;;
70780;SDS011;59514;48.810;2.134;2023-04-21T04:09:56;12.82;;;10.07;;
70780;SDS011;59514;48.810;2.134;2023-04-21T04:12:21;10.05;;;9.02;;
70780;SDS011;59514;48.810;2.134;2023-04-21T04:14:47;11.40;;;9.18;;
70780;SDS011;59514;48.810;2.134;2023-04-21T04:17:12;11.70;;;9.85;;
70780;SDS011;59514;48.810;2.134;2023-04-21T04:19:37;10.95;;;9.75;;
70780;SDS011;59514;48.810;2.134;2023-04-21T04:22:02;9.60;;;8.38;;
70780;SDS011;59514;48.810;2.134;2023-04-21T04:24:28;10.20;;;9.10;;
70780;SDS011;59514;48.810;2.134;2023-04-21T04:26:54;11.13;;;9.27;;
70780;SDS011;59514;48.810;2.134;2023-04-21T04:29:21;8.88;;;7.85;;
70780;SDS011;59514;48.810;2.134;2023-04-21T04:31:48;8.63;;;7.82;;
70780;SDS011;59514;48.810;2.134;2023-04-21T04:34:14;8.45;;;7.50;;
70780;SDS011;59514;48.810;2.134;2023-04-21T04:36:40;9.60;;;7.72;;
70780;SDS011;59514;48.810;2.134;2023-04-21T04:39:06;8.80;;;7.90;;
70780;SDS011;59514;48.810;2.134;2023-04-21T04:41:32;11.57;;;9.30;;
70780;SDS011;59514;48.810;2.134;2023-04-21T04:43:58;9.68;;;8.68;;
70780;SDS011;59514;48.810;2.134;2023-04-21T04:46:23;9.80;;;8.80;;
70780;SDS011;59514;48.810;2.134;2023-04-21T04:48:49;11.50;;;9.55;;
70780;SDS011;59514;48.810;2.134;2023-04-21T04:51:15;8.90;;;7.88;;
70780;SDS011;59514;48.810;2.134;2023-04-21T04:53:41;9.70;;;8.38;;
70780;SDS011;59514;48.810;2.134;2023-04-21T04:56:06;11.13;;;9.60;;
70780;SDS011;59514;48.810;2.134;2023-04-21T04:58:31;11.25;;;10.05;;
70780;SDS011;59514;48.810;2.134;2023-04-21T05:00:57;10.70;;;9.27;;
70780;SDS011;59514;48.810;2.134;2023-04-21T05:03:22;10.32;;;8.80;;
70780;SDS011;59514;48.810;2.134;2023-04-21T05:05:47;9.90;;;8.52;;
70780;SDS011;59514;48.810;2.134;2023-04-21T05:08:13;8.82;;;7.75;;
70780;SDS011;59514;48.810;2.134;2023-04-21T05:10:38;12.13;;;9.98;;
70780;SDS011;59514;48.810;2.134;2023-04-21T05:13:04;9.63;;;8.73;;
70780;SDS011;59514;48.810;2.134;2023-04-21T05:15:29;10.93;;;9.63;;
70780;SDS011;59514;48.810;2.134;2023-04-21T05:17:55;11.00;;;9.88;;
70780;SDS011;59514;48.810;2.134;2023-04-21T05:20:20;11.00;;;9.85;;
70780;SDS011;59514;48.810;2.134;2023-04-21T05:22:46;9.32;;;8.43;;
70780;SDS011;59514;48.810;2.134;2023-04-21T05:25:11;10.18;;;8.95;;
70780;SDS011;59514;48.810;2.134;2023-04-21T05:27:42;10.38;;;9.27;;
70780;SDS011;59514;48.810;2.134;2023-04-21T05:30:08;9.70;;;8.70;;
70780;SDS011;59514;48.810;2.134;2023-04-21T05:32:33;9.95;;;8.85;;
70780;SDS011;59514;48.810;2.134;2023-04-21T05:34:59;11.98;;;10.20;;
70780;SDS011;59514;48.810;2.134;2023-04-21T05:37:25;9.35;;;8.35;;
70780;SDS011;59514;48.810;2.134;2023-04-21T05:39:51;9.50;;;8.23;;
70780;SDS011;59514;48.810;2.134;2023-04-21T05:42:16;7.85;;;7.05;;
70780;SDS011;59514;48.810;2.134;2023-04-21T05:44:45;10.63;;;8.93;;
70780;SDS011;59514;48.810;2.134;2023-04-21T05:47:11;8.68;;;7.78;;
70780;SDS011;59514;48.810;2.134;2023-04-21T05:49:36;7.93;;;7.13;;
70780;SDS011;59514;48.810;2.134;2023-04-21T05:52:01;8.38;;;7.63;;
70780;SDS011;59514;48.810;2.134;2023-04-21T05:54:27;10.10;;;8.15;;
70780;SDS011;59514;48.810;2.134;2023-04-21T05:56:52;9.13;;;8.10;;
70780;SDS011;59514;48.810;2.134;2023-04-21T05:59:17;10.15;;;9.15;;
70780;SDS011;59514;48.810;2.134;2023-04-21T06:01:43;9.30;;;8.38;;
70780;SDS011;59514;48.810;2.134;2023-04-21T06:04:08;9.80;;;8.80;;
70780;SDS011;59514;48.810;2.134;2023-04-21T06:06:33;9.63;;;8.43;;
70780;SDS011;59514;48.810;2.134;2023-04-21T06:08:59;9.50;;;8.52;;
70780;SDS011;59514;48.810;2.134;2023-04-21T06:11:24;8.40;;;7.60;;
70780;SDS011;59514;48.810;2.134;2023-04-21T06:13:50;11.30;;;9.70;;
70780;SDS011;59514;48.810;2.134;2023-04-21T06:16:17;9.25;;;8.23;;
70780;SDS011;59514;48.810;2.134;2023-04-21T06:18:43;9.05;;;8.15;;
70780;SDS011;59514;48.810;2.134;2023-04-21T06:21:09;10.35;;;9.00;;
70780;SDS011;59514;48.810;2.134;2023-04-21T06:23:34;8.50;;;7.60;;
70780;SDS011;59514;48.810;2.134;2023-04-21T06:26:04;9.55;;;8.18;;
70780;SDS011;59514;48.810;2.134;2023-04-21T06:28:31;10.20;;;9.17;;
70780;SDS011;59514;48.810;2.134;2023-04-21T06:30:58;8.50;;;7.57;;
70780;SDS011;59514;48.810;2.134;2023-04-21T06:33:25;9.77;;;8.88;;
70780;SDS011;59514;48.810;2.134;2023-04-21T06:35:50;8.63;;;7.65;;
70780;SDS011;59514;48.810;2.134;2023-04-21T06:38:16;8.73;;;7.82;;
70780;SDS011;59514;48.810;2.134;2023-04-21T06:40:41;10.38;;;9.32;;
70780;SDS011;59514;48.810;2.134;2023-04-21T06:43:07;9.18;;;8.23;;
70780;SDS011;59514;48.810;2.134;2023-04-21T06:45:32;10.52;;;7.80;;
70780;SDS011;59514;48.810;2.134;2023-04-21T06:47:57;9.70;;;8.23;;
70780;SDS011;59514;48.810;2.134;2023-04-21T06:50:23;9.52;;;8.63;;
70780;SDS011;59514;48.810;2.134;2023-04-21T06:52:48;11.30;;;10.20;;
70780;SDS011;59514;48.810;2.134;2023-04-21T06:55:14;10.23;;;9.13;;
70780;SDS011;59514;48.810;2.134;2023-04-21T06:57:39;10.60;;;9.50;;
70780;SDS011;59514;48.810;2.134;2023-04-21T07:00:05;9.15;;;8.25;;
70780;SDS011;59514;48.810;2.134;2023-04-21T07:02:31;10.45;;;9.40;;
70780;SDS011;59514;48.810;2.134;2023-04-21T07:04:56;10.50;;;9.50;;
70780;SDS011;59514;48.810;2.134;2023-04-21T07:07:21;11.40;;;10.23;;
70780;SDS011;59514;48.810;2.134;2023-04-21T07:09:46;10.98;;;9.98;;
70780;SDS011;59514;48.810;2.134;2023-04-21T07:12:12;11.52;;;10.43;;
70780;SDS011;59514;48.810;2.134;2023-04-21T07:14:38;10.18;;;9.18;;
70780;SDS011;59514;48.810;2.134;2023-04-21T07:17:03;9.70;;;8.80;;
70780;SDS011;59514;48.810;2.134;2023-04-21T07:19:28;9.18;;;8.27;;
70780;SDS011;59514;48.810;2.134;2023-04-21T07:21:53;10.45;;;9.23;;
70780;SDS011;59514;48.810;2.134;2023-04-21T07:24:19;8.80;;;7.90;;
70780;SDS011;59514;48.810;2.134;2023-04-21T07:26:44;8.40;;;7.60;;
70780;SDS011;59514;48.810;2.134;2023-04-21T07:29:10;8.65;;;7.95;;
70780;SDS011;59514;48.810;2.134;2023-04-21T07:31:35;9.20;;;8.30;;
70780;SDS011;59514;48.810;2.134;2023-04-21T07:34:00;8.73;;;7.93;;
70780;SDS011;59514;48.810;2.134;2023-04-21T07:36:25;10.07;;;9.15;;
70780;SDS011;59514;48.810;2.134;2023-04-21T07:38:52;10.52;;;9.52;;
70780;SDS011;59514;48.810;2.134;2023-04-21T07:41:17;9.55;;;8.65;;
70780;SDS011;59514;48.810;2.134;2023-04-21T07:43:43;9.40;;;8.50;;
70780;SDS011;59514;48.810;2.134;2023-04-21T07:46:09;9.57;;;8.68;;
70780;SDS011;59514;48.810;2.134;2023-04-21T07:48:34;8.73;;;7.95;;
70780;SDS011;59514;48.810;2.134;2023-04-21T07:50:59;11.38;;;10.10;;
70780;SDS011;59514;48.810;2.134;2023-04-21T07:53:26;9.07;;;8.27;;
70780;SDS011;59514;48.810;2.134;2023-04-21T07:55:51;10.88;;;9.68;;
70780;SDS011;59514;48.810;2.134;2023-04-21T07:58:18;10.27;;;9.38;;
70780;SDS011;59514;48.810;2.134;2023-04-21T08:00:43;9.38;;;8.48;;
70780;SDS011;59514;48.810;2.134;2023-04-21T08:03:08;8.82;;;8.02;;
70780;SDS011;59514;48.810;2.134;2023-04-21T08:05:34;9.75;;;8.85;;
70780;SDS011;59514;48.810;2.134;2023-04-21T08:07:59;8.88;;;8.07;;
70780;SDS011;59514;48.810;2.134;2023-04-21T08:10:25;8.95;;;8.15;;
70780;SDS011;59514;48.810;2.134;2023-04-21T08:12:50;7.28;;;6.60;;
70780;SDS011;59514;48.810;2.134;2023-04-21T08:15:15;7.38;;;6.68;;
70780;SDS011;59514;48.810;2.134;2023-04-21T08:17:41;7.82;;;7.13;;
70780;SDS011;59514;48.810;2.134;2023-04-21T08:20:06;8.32;;;7.55;;
70780;SDS011;59514;48.810;2.134;2023-04-21T08:22:32;7.90;;;7.18;;
70780;SDS011;59514;48.810;2.134;2023-04-21T08:24:58;7.15;;;6.55;;
70780;SDS011;59514;48.810;2.134;2023-04-21T08:27:23;7.28;;;6.68;;
70780;SDS011;59514;48.810;2.134;2023-04-21T08:29:49;9.50;;;8.60;;
70780;SDS011;59514;48.810;2.134;2023-04-21T08:32:14;9.38;;;8.57;;
70780;SDS011;59514;48.810;2.134;2023-04-21T08:34:40;10.23;;;9.23;;
70780;SDS011;59514;48.810;2.134;2023-04-21T08:37:05;8.13;;;7.32;;
70780;SDS011;59514;48.810;2.134;2023-04-21T08:39:30;8.93;;;8.07;;
70780;SDS011;59514;48.810;2.134;2023-04-21T08:41:56;7.53;;;6.82;;
70780;SDS011;59514;48.810;2.134;2023-04-21T08:44:23;8.13;;;7.38;;
70780;SDS011;59514;48.810;2.134;2023-04-21T08:46:48;8.70;;;7.90;;
70780;SDS011;59514;48.810;2.134;2023-04-21T08:49:16;7.53;;;6.82;;
70780;SDS011;59514;48.810;2.134;2023-04-21T08:51:44;8.25;;;7.55;;
70780;SDS011;59514;48.810;2.134;2023-04-21T08:54:10;7.20;;;6.50;;
70780;SDS011;59514;48.810;2.134;2023-04-21T08:56:35;7.22;;;6.63;;
70780;SDS011;59514;48.810;2.134;2023-04-21T08:59:01;7.35;;;6.75;;
70780;SDS011;59514;48.810;2.134;2023-04-21T09:01:26;6.72;;;6.18;;
70780;SDS011;59514;48.810;2.134;2023-04-21T09:03:51;7.22;;;6.63;;
70780;SDS011;59514;48.810;2.134;2023-04-21T09:06:17;6.80;;;6.20;;
70780;SDS011;59514;48.810;2.134;2023-04-21T09:08:43;7.10;;;6.50;;
70780;SDS011;59514;48.810;2.134;2023-04-21T09:11:17;8.70;;;7.90;;
70780;SDS011;59514;48.810;2.134;2023-04-21T09:13:43;7.35;;;6.75;;
70780;SDS011;59514;48.810;2.134;2023-04-21T09:16:18;7.35;;;6.43;;
70780;SDS011;59514;48.810;2.134;2023-04-21T09:18:45;7.57;;;6.88;;
70780;SDS011;59514;48.810;2.134;2023-04-21T09:21:12;7.43;;;6.72;;
70780;SDS011;59514;48.810;2.134;2023-04-21T09:23:42;7.63;;;6.95;;
70780;SDS011;59514;48.810;2.134;2023-04-21T09:26:10;7.65;;;7.05;;
70780;SDS011;59514;48.810;2.134;2023-04-21T09:28:39;7.45;;;6.80;;
70780;SDS011;59514;48.810;2.134;2023-04-21T09:31:11;8.27;;;7.57;;
70780;SDS011;59514;48.810;2.134;2023-04-21T09:33:37;7.43;;;6.82;;
70780;SDS011;59514;48.810;2.134;2023-04-21T09:36:03;7.88;;;7.18;;
70780;SDS011;59514;48.810;2.134;2023-04-21T09:38:29;7.28;;;6.57;;
70780;SDS011;59514;48.810;2.134;2023-04-21T09:40:55;7.57;;;6.97;;
70780;SDS011;59514;48.810;2.134;2023-04-21T09:43:22;6.47;;;5.97;;
70780;SDS011;59514;48.810;2.134;2023-04-21T09:45:47;6.15;;;5.65;;
70780;SDS011;59514;48.810;2.134;2023-04-21T09:48:13;7.30;;;6.70;;
70780;SDS011;59514;48.810;2.134;2023-04-21T09:50:41;7.10;;;6.50;;
70780;SDS011;59514;48.810;2.134;2023-04-21T09:53:07;6.35;;;5.85;;
70780;SDS011;59514;48.810;2.134;2023-04-21T09:55:38;7.15;;;6.55;;
70780;SDS011;59514;48.810;2.134;2023-04-21T09:58:05;6.95;;;6.32;;
70780;SDS011;59514;48.810;2.134;2023-04-21T10:00:33;7.05;;;6.45;;
70780;SDS011;59514;48.810;2.134;2023-04-21T10:03:03;6.72;;;6.13;;
70780;SDS011;59514;48.810;2.134;2023-04-21T10:05:34;6.20;;;5.60;;
70780;SDS011;59514;48.810;2.134;2023-04-21T10:08:00;5.70;;;5.22;;
70780;SDS011;59514;48.810;2.134;2023-04-21T10:10:26;6.30;;;5.55;;
70780;SDS011;59514;48.810;2.134;2023-04-21T10:12:52;6.10;;;5.60;;
70780;SDS011;59514;48.810;2.134;2023-04-21T10:15:28;4.95;;;4.55;;
70780;SDS011;59514;48.810;2.134;2023-04-21T10:18:10;6.22;;;5.72;;
70780;SDS011;59514;48.810;2.134;2023-04-21T10:23:29;5.80;;;5.30;;
70780;SDS011;59514;48.810;2.134;2023-04-21T10:28:47;6.22;;;5.72;;
70780;SDS011;59514;48.810;2.134;2023-04-21T10:31:19;5.80;;;5.32;;
70780;SDS011;59514;48.810;2.134;2023-04-21T10:39:07;5.72;;;5.32;;
70780;SDS011;59514;48.810;2.134;2023-04-21T10:41:36;6.28;;;5.78;;
70780;SDS011;59514;48.810;2.134;2023-04-21T10:44:11;6.63;;;6.03;;
70780;SDS011;59514;48.810;2.134;2023-04-21T10:46:47;6.30;;;5.80;;
70780;SDS011;59514;48.810;2.134;2023-04-21T10:54:22;5.97;;;5.47;;
70780;SDS011;59514;48.810;2.134;2023-04-21T10:56:51;5.93;;;5.43;;
70780;SDS011;59514;48.810;2.134;2023-04-21T10:59:18;5.38;;;4.97;;
70780;SDS011;59514;48.810;2.134;2023-04-21T11:01:44;5.45;;;4.97;;
70780;SDS011;59514;48.810;2.134;2023-04-21T11:04:13;5.82;;;5.32;;
70780;SDS011;59514;48.810;2.134;2023-04-21T11:06:42;4.90;;;4.50;;
70780;SDS011;59514;48.810;2.134;2023-04-21T11:09:28;5.55;;;5.15;;
70780;SDS011;59514;48.810;2.134;2023-04-21T11:11:57;6.43;;;5.93;;
70780;SDS011;59514;48.810;2.134;2023-04-21T11:14:23;6.55;;;6.05;;
70780;SDS011;59514;48.810;2.134;2023-04-21T11:16:48;6.15;;;5.13;;
70780;SDS011;59514;48.810;2.134;2023-04-21T11:19:14;5.10;;;4.70;;
70780;SDS011;59514;48.810;2.134;2023-04-21T11:21:39;5.28;;;4.78;;
70780;SDS011;59514;48.810;2.134;2023-04-21T11:24:05;6.18;;;5.57;;
70780;SDS011;59514;48.810;2.134;2023-04-21T11:26:33;5.72;;;5.28;;
70780;SDS011;59514;48.810;2.134;2023-04-21T11:29:06;5.35;;;4.95;;
70780;SDS011;59514;48.810;2.134;2023-04-21T11:31:34;5.78;;;5.38;;
70780;SDS011;59514;48.810;2.134;2023-04-21T11:34:01;6.60;;;6.10;;
70780;SDS011;59514;48.810;2.134;2023-04-21T11:36:34;5.63;;;5.18;;
70780;SDS011;59514;48.810;2.134;2023-04-21T11:39:19;5.28;;;4.78;;
70780;SDS011;59514;48.810;2.134;2023-04-21T11:41:46;5.03;;;4.63;;
70780;SDS011;59514;48.810;2.134;2023-04-21T11:44:12;5.07;;;4.68;;
70780;SDS011;59514;48.810;2.134;2023-04-21T11:46:53;5.35;;;4.95;;
70780;SDS011;59514;48.810;2.134;2023-04-21T11:49:19;6.50;;;5.90;;
70780;SDS011;59514;48.810;2.134;2023-04-21T11:51:49;5.80;;;5.32;;
70780;SDS011;59514;48.810;2.134;2023-04-21T11:54:16;5.50;;;5.10;;
70780;SDS011;59514;48.810;2.134;2023-04-21T11:56:44;5.28;;;4.88;;
70780;SDS011;59514;48.810;2.134;2023-04-21T11:59:12;5.07;;;4.68;;
70780;SDS011;59514;48.810;2.134;2023-04-21T12:01:49;6.80;;;6.18;;
70780;SDS011;59514;48.810;2.134;2023-04-21T12:04:17;5.47;;;5.07;;
70780;SDS011;59514;48.810;2.134;2023-04-21T12:06:44;5.13;;;4.72;;
70780;SDS011;59514;48.810;2.134;2023-04-21T12:09:17;5.10;;;4.72;;
70780;SDS011;59514;48.810;2.134;2023-04-21T12:11:46;5.32;;;4.93;;
70780;SDS011;59514;48.810;2.134;2023-04-21T12:14:23;4.85;;;4.45;;
70780;SDS011;59514;48.810;2.134;2023-04-21T12:16:52;4.85;;;4.45;;
70780;SDS011;59514;48.810;2.134;2023-04-21T12:22:00;4.88;;;4.50;;
70780;SDS011;59514;48.810;2.134;2023-04-21T12:24:25;5.18;;;4.78;;
70780;SDS011;59514;48.810;2.134;2023-04-21T12:26:50;4.63;;;4.22;;
70780;SDS011;59514;48.810;2.134;2023-04-21T12:29:16;4.43;;;4.10;;
70780;SDS011;59514;48.810;2.134;2023-04-21T12:31:42;4.80;;;4.40;;
70780;SDS011;59514;48.810;2.134;2023-04-21T12:34:07;4.13;;;3.83;;
70780;SDS011;59514;48.810;2.134;2023-04-21T12:36:33;5.25;;;4.57;;
70780;SDS011;59514;48.810;2.134;2023-04-21T12:38:58;4.82;;;4.53;;
70780;SDS011;59514;48.810;2.134;2023-04-21T12:41:24;5.15;;;4.85;;
70780;SDS011;59514;48.810;2.134;2023-04-21T12:43:49;4.90;;;4.50;;
70780;SDS011;59514;48.810;2.134;2023-04-21T12:46:15;5.32;;;4.93;;
70780;SDS011;59514;48.810;2.134;2023-04-21T12:48:41;4.97;;;4.57;;
70780;SDS011;59514;48.810;2.134;2023-04-21T12:51:06;5.93;;;5.40;;
70780;SDS011;59514;48.810;2.134;2023-04-21T12:53:32;5.32;;;4.93;;
70780;SDS011;59514;48.810;2.134;2023-04-21T12:55:57;5.22;;;4.82;;
70780;SDS011;59514;48.810;2.134;2023-04-21T12:58:22;6.78;;;6.18;;
70780;SDS011;59514;48.810;2.134;2023-04-21T13:00:48;5.72;;;5.32;;
70780;SDS011;59514;48.810;2.134;2023-04-21T13:03:13;5.60;;;5.20;;
70780;SDS011;59514;48.810;2.134;2023-04-21T13:05:39;5.10;;;4.70;;
70780;SDS011;59514;48.810;2.134;2023-04-21T13:08:04;4.22;;;3.80;;
70780;SDS011;59514;48.810;2.134;2023-04-21T13:10:31;4.15;;;3.80;;
70780;SDS011;59514;48.810;2.134;2023-04-21T13:12:56;4.10;;;3.80;;
70780;SDS011;59514;48.810;2.134;2023-04-21T13:15:21;7.30;;;4.20;;
70780;SDS011;59514;48.810;2.134;2023-04-21T13:17:46;3.92;;;3.63;;
70780;SDS011;59514;48.810;2.134;2023-04-21T13:20:12;4.43;;;4.03;;
70780;SDS011;59514;48.810;2.134;2023-04-21T13:22:37;4.25;;;3.92;;
70780;SDS011;59514;48.810;2.134;2023-04-21T13:25:03;5.07;;;3.67;;
70780;SDS011;59514;48.810;2.134;2023-04-21T13:27:29;4.38;;;4.07;;
70780;SDS011;59514;48.810;2.134;2023-04-21T13:29:55;4.03;;;3.72;;
70780;SDS011;59514;48.810;2.134;2023-04-21T13:32:21;3.30;;;3.10;;
70780;SDS011;59514;48.810;2.134;2023-04-21T13:34:46;4.18;;;3.88;;
70780;SDS011;59514;48.810;2.134;2023-04-21T13:37:12;4.30;;;4.00;;
70780;SDS011;59514;48.810;2.134;2023-04-21T13:39:40;4.22;;;3.92;;
70780;SDS011;59514;48.810;2.134;2023-04-21T13:42:05;4.70;;;4.30;;
70780;SDS011;59514;48.810;2.134;2023-04-21T13:44:31;4.28;;;3.97;;
70780;SDS011;59514;48.810;2.134;2023-04-21T13:46:56;4.63;;;4.32;;
70780;SDS011;59514;48.810;2.134;2023-04-21T13:49:21;5.28;;;4.78;;
70780;SDS011;59514;48.810;2.134;2023-04-21T13:51:47;3.90;;;3.60;;
70780;SDS011;59514;48.810;2.134;2023-04-21T13:54:12;4.30;;;3.90;;
70780;SDS011;59514;48.810;2.134;2023-04-21T13:56:37;4.50;;;4.20;;
70780;SDS011;59514;48.810;2.134;2023-04-21T13:59:03;4.20;;;3.90;;
70780;SDS011;59514;48.810;2.134;2023-04-21T14:01:30;4.22;;;3.92;;
70780;SDS011;59514;48.810;2.134;2023-04-21T14:03:55;3.83;;;3.53;;
70780;SDS011;59514;48.810;2.134;2023-04-21T14:06:21;3.65;;;3.35;;
70780;SDS011;59514;48.810;2.134;2023-04-21T14:08:46;3.88;;;3.58;;
70780;SDS011;59514;48.810;2.134;2023-04-21T14:11:11;3.75;;;3.45;;
70780;SDS011;59514;48.810;2.134;2023-04-21T14:13:37;3.65;;;3.35;;
70780;SDS011;59514;48.810;2.134;2023-04-21T14:16:02;3.65;;;3.35;;
70780;SDS011;59514;48.810;2.134;2023-04-21T14:18:27;4.07;;;3.78;;
70780;SDS011;59514;48.810;2.134;2023-04-21T14:20:53;3.45;;;3.25;;
70780;SDS011;59514;48.810;2.134;2023-04-21T14:23:18;3.78;;;3.47;;
70780;SDS011;59514;48.810;2.134;2023-04-21T14:25:43;3.72;;;3.42;;
70780;SDS011;59514;48.810;2.134;2023-04-21T14:28:09;4.97;;;4.57;;
70780;SDS011;59514;48.810;2.134;2023-04-21T14:30:34;4.10;;;3.80;;
70780;SDS011;59514;48.810;2.134;2023-04-21T14:33:03;4.20;;;3.90;;
70780;SDS011;59514;48.810;2.134;2023-04-21T14:35:28;4.03;;;3.72;;
70780;SDS011;59514;48.810;2.134;2023-04-21T14:37:54;3.92;;;3.63;;
70780;SDS011;59514;48.810;2.134;2023-04-21T14:40:21;4.78;;;4.47;;
70780;SDS011;59514;48.810;2.134;2023-04-21T14:42:46;4.35;;;4.00;;
70780;SDS011;59514;48.810;2.134;2023-04-21T14:45:12;4.23;;;3.93;;
70780;SDS011;59514;48.810;2.134;2023-04-21T14:47:37;3.60;;;3.30;;
70780;SDS011;59514;48.810;2.134;2023-04-21T14:50:03;4.15;;;3.75;;
70780;SDS011;59514;48.810;2.134;2023-04-21T14:52:29;3.75;;;3.45;;
70780;SDS011;59514;48.810;2.134;2023-04-21T14:54:55;4.88;;;4.47;;
70780;SDS011;59514;48.810;2.134;2023-04-21T14:57:20;4.10;;;3.80;;
70780;SDS011;59514;48.810;2.134;2023-04-21T14:59:50;4.00;;;3.72;;